sensor_id;sensor_type;location;lat;lon;timestamp;temperature;humidity
11647;DHT22;5880;52.342;9.662;2023-08-31T00:00:42;17.50;67.60
11647;DHT22;5880;52.342;9.662;2023-08-31T00:03:10;17.50;67.80
11647;DHT22;5880;52.342;9.662;2023-08-31T00:05:42;17.50;67.60
11647;DHT22;5880;52.342;9.662;2023-08-31T00:08:09;17.50;67.80
11647;DHT22;5880;52.342;9.662;2023-08-31T00:10:36;17.40;67.60
11647;DHT22;5880;52.342;9.662;2023-08-31T00:13:03;17.40;67.60
11647;DHT22;5880;52.342;9.662;2023-08-31T00:15:30;17.40;67.70
11647;DHT22;5880;52.342;9.662;2023-08-31T00:17:58;17.40;67.80
11647;DHT22;5880;52.342;9.662;2023-08-31T00:20:24;17.30;67.70
11647;DHT22;5880;52.342;9.662;2023-08-31T00:22:50;17.30;67.70
11647;DHT22;5880;52.342;9.662;2023-08-31T00:25:16;17.30;67.70
11647;DHT22;5880;52.342;9.662;2023-08-31T00:27:42;17.20;67.70
11647;DHT22;5880;52.342;9.662;2023-08-31T00:30:10;17.20;67.70
11647;DHT22;5880;52.342;9.662;2023-08-31T00:32:37;17.20;67.80
11647;DHT22;5880;52.342;9.662;2023-08-31T00:35:05;17.20;67.70
11647;DHT22;5880;52.342;9.662;2023-08-31T00:37:31;17.20;67.90
11647;DHT22;5880;52.342;9.662;2023-08-31T00:39:56;17.20;67.90
11647;DHT22;5880;52.342;9.662;2023-08-31T00:42:22;17.10;68.00
11647;DHT22;5880;52.342;9.662;2023-08-31T00:44:50;17.10;68.00
11647;DHT22;5880;52.342;9.662;2023-08-31T00:47:15;17.10;68.00
11647;DHT22;5880;52.342;9.662;2023-08-31T00:49:42;17.10;68.10
11647;DHT22;5880;52.342;9.662;2023-08-31T00:52:07;17.10;68.10
11647;DHT22;5880;52.342;9.662;2023-08-31T00:54:34;17.10;68.10
11647;DHT22;5880;52.342;9.662;2023-08-31T00:57:01;17.00;68.00
11647;DHT22;5880;52.342;9.662;2023-08-31T00:59:27;17.10;68.10
11647;DHT22;5880;52.342;9.662;2023-08-31T01:02:11;17.20;68.10
11647;DHT22;5880;52.342;9.662;2023-08-31T01:04:44;17.00;68.10
11647;DHT22;5880;52.342;9.662;2023-08-31T01:07:49;17.00;67.90
11647;DHT22;5880;52.342;9.662;2023-08-31T01:10:39;17.00;68.50
11647;DHT22;5880;52.342;9.662;2023-08-31T01:13:24;17.00;68.60
11647;DHT22;5880;52.342;9.662;2023-08-31T01:15:53;16.90;68.10
11647;DHT22;5880;52.342;9.662;2023-08-31T01:18:22;16.90;68.10
11647;DHT22;5880;52.342;9.662;2023-08-31T01:26:20;16.90;68.60
11647;DHT22;5880;52.342;9.662;2023-08-31T01:28:48;16.80;68.00
11647;DHT22;5880;52.342;9.662;2023-08-31T01:31:15;16.80;68.10
11647;DHT22;5880;52.342;9.662;2023-08-31T01:33:42;16.80;68.00
11647;DHT22;5880;52.342;9.662;2023-08-31T01:36:16;16.80;68.00
11647;DHT22;5880;52.342;9.662;2023-08-31T01:39:14;16.80;68.20
11647;DHT22;5880;52.342;9.662;2023-08-31T01:41:48;16.70;69.00
11647;DHT22;5880;52.342;9.662;2023-08-31T01:44:21;16.70;68.30
11647;DHT22;5880;52.342;9.662;2023-08-31T01:46:52;16.70;68.10
11647;DHT22;5880;52.342;9.662;2023-08-31T01:49:21;16.70;68.40
11647;DHT22;5880;52.342;9.662;2023-08-31T01:51:47;16.70;68.00
11647;DHT22;5880;52.342;9.662;2023-08-31T01:54:13;16.70;67.90
11647;DHT22;5880;52.342;9.662;2023-08-31T01:56:39;16.60;67.80
11647;DHT22;5880;52.342;9.662;2023-08-31T01:59:04;16.60;67.70
11647;DHT22;5880;52.342;9.662;2023-08-31T02:01:32;16.60;67.80
11647;DHT22;5880;52.342;9.662;2023-08-31T02:03:58;16.60;67.80
11647;DHT22;5880;52.342;9.662;2023-08-31T02:06:24;16.60;67.70
11647;DHT22;5880;52.342;9.662;2023-08-31T02:08:49;17.30;68.30
11647;DHT22;5880;52.342;9.662;2023-08-31T02:11:15;16.60;67.90
11647;DHT22;5880;52.342;9.662;2023-08-31T02:13:41;16.60;67.80
11647;DHT22;5880;52.342;9.662;2023-08-31T02:16:07;16.60;67.90
11647;DHT22;5880;52.342;9.662;2023-08-31T02:18:33;16.60;67.80
11647;DHT22;5880;52.342;9.662;2023-08-31T02:20:58;16.60;67.90
11647;DHT22;5880;52.342;9.662;2023-08-31T02:23:24;16.60;68.00
11647;DHT22;5880;52.342;9.662;2023-08-31T02:25:50;16.60;68.00
11647;DHT22;5880;52.342;9.662;2023-08-31T02:28:15;16.60;67.90
11647;DHT22;5880;52.342;9.662;2023-08-31T02:30:44;16.60;67.90
11647;DHT22;5880;52.342;9.662;2023-08-31T02:33:11;16.50;67.90
11647;DHT22;5880;52.342;9.662;2023-08-31T02:35:37;16.50;67.90
11647;DHT22;5880;52.342;9.662;2023-08-31T02:38:02;16.50;67.90
11647;DHT22;5880;52.342;9.662;2023-08-31T02:40:28;16.50;67.80
11647;DHT22;5880;52.342;9.662;2023-08-31T02:42:54;16.50;67.80
11647;DHT22;5880;52.342;9.662;2023-08-31T02:45:20;16.50;67.80
11647;DHT22;5880;52.342;9.662;2023-08-31T02:47:45;16.50;67.80
11647;DHT22;5880;52.342;9.662;2023-08-31T02:50:11;16.50;67.70
11647;DHT22;5880;52.342;9.662;2023-08-31T02:52:37;16.70;67.80
11647;DHT22;5880;52.342;9.662;2023-08-31T02:55:03;16.40;67.60
11647;DHT22;5880;52.342;9.662;2023-08-31T02:57:29;16.40;67.50
11647;DHT22;5880;52.342;9.662;2023-08-31T02:59:55;16.40;67.50
11647;DHT22;5880;52.342;9.662;2023-08-31T03:02:21;16.40;67.50
11647;DHT22;5880;52.342;9.662;2023-08-31T03:04:47;16.40;67.50
11647;DHT22;5880;52.342;9.662;2023-08-31T03:07:13;16.40;67.70
11647;DHT22;5880;52.342;9.662;2023-08-31T03:09:40;16.40;67.90
11647;DHT22;5880;52.342;9.662;2023-08-31T03:12:06;16.30;68.10
11647;DHT22;5880;52.342;9.662;2023-08-31T03:14:32;16.30;68.10
11647;DHT22;5880;52.342;9.662;2023-08-31T03:16:58;16.40;68.30
11647;DHT22;5880;52.342;9.662;2023-08-31T03:19:23;16.40;68.30
11647;DHT22;5880;52.342;9.662;2023-08-31T03:21:50;16.10;68.20
11647;DHT22;5880;52.342;9.662;2023-08-31T03:24:15;16.40;68.40
11647;DHT22;5880;52.342;9.662;2023-08-31T03:26:41;16.30;68.40
11647;DHT22;5880;52.342;9.662;2023-08-31T03:29:07;16.30;68.40
11647;DHT22;5880;52.342;9.662;2023-08-31T03:31:33;16.30;68.40
11647;DHT22;5880;52.342;9.662;2023-08-31T03:33:59;16.40;68.50
11647;DHT22;5880;52.342;9.662;2023-08-31T03:36:24;16.40;68.50
11647;DHT22;5880;52.342;9.662;2023-08-31T03:38:50;16.40;68.50
11647;DHT22;5880;52.342;9.662;2023-08-31T03:41:15;16.40;68.50
11647;DHT22;5880;52.342;9.662;2023-08-31T03:43:41;16.40;68.50
11647;DHT22;5880;52.342;9.662;2023-08-31T03:46:07;16.40;68.40
11647;DHT22;5880;52.342;9.662;2023-08-31T03:48:32;16.30;68.40
11647;DHT22;5880;52.342;9.662;2023-08-31T03:50:58;16.30;68.30
11647;DHT22;5880;52.342;9.662;2023-08-31T03:53:24;16.30;68.30
11647;DHT22;5880;52.342;9.662;2023-08-31T03:55:49;16.30;68.10
11647;DHT22;5880;52.342;9.662;2023-08-31T03:58:15;16.30;68.20
11647;DHT22;5880;52.342;9.662;2023-08-31T04:00:42;16.30;68.10
11647;DHT22;5880;52.342;9.662;2023-08-31T04:03:09;16.20;68.00
11647;DHT22;5880;52.342;9.662;2023-08-31T04:05:35;16.20;68.10
11647;DHT22;5880;52.342;9.662;2023-08-31T04:08:01;16.20;68.20
11647;DHT22;5880;52.342;9.662;2023-08-31T04:10:30;16.20;68.20
11647;DHT22;5880;52.342;9.662;2023-08-31T04:12:57;16.20;68.10
11647;DHT22;5880;52.342;9.662;2023-08-31T04:15:23;16.20;68.00
11647;DHT22;5880;52.342;9.662;2023-08-31T04:17:48;16.20;67.90
11647;DHT22;5880;52.342;9.662;2023-08-31T04:20:15;16.20;67.90
11647;DHT22;5880;52.342;9.662;2023-08-31T04:22:41;16.10;67.80
11647;DHT22;5880;52.342;9.662;2023-08-31T04:25:07;16.10;67.70
11647;DHT22;5880;52.342;9.662;2023-08-31T04:27:32;16.10;67.60
11647;DHT22;5880;52.342;9.662;2023-08-31T04:30:00;16.10;67.70
11647;DHT22;5880;52.342;9.662;2023-08-31T04:32:26;16.10;67.60
11647;DHT22;5880;52.342;9.662;2023-08-31T04:34:52;16.10;67.60
11647;DHT22;5880;52.342;9.662;2023-08-31T04:37:18;16.10;67.70
11647;DHT22;5880;52.342;9.662;2023-08-31T04:39:44;16.20;67.80
11647;DHT22;5880;52.342;9.662;2023-08-31T04:42:09;16.10;67.90
11647;DHT22;5880;52.342;9.662;2023-08-31T04:44:35;16.00;67.80
11647;DHT22;5880;52.342;9.662;2023-08-31T04:47:01;16.10;68.10
11647;DHT22;5880;52.342;9.662;2023-08-31T04:49:27;16.10;68.10
11647;DHT22;5880;52.342;9.662;2023-08-31T04:51:52;16.10;68.20
11647;DHT22;5880;52.342;9.662;2023-08-31T04:54:18;16.10;68.20
11647;DHT22;5880;52.342;9.662;2023-08-31T04:56:44;16.10;68.00
11647;DHT22;5880;52.342;9.662;2023-08-31T04:59:10;16.10;68.00
11647;DHT22;5880;52.342;9.662;2023-08-31T05:01:36;16.10;68.00
11647;DHT22;5880;52.342;9.662;2023-08-31T05:04:02;16.10;68.10
11647;DHT22;5880;52.342;9.662;2023-08-31T05:06:28;16.10;68.10
11647;DHT22;5880;52.342;9.662;2023-08-31T05:08:54;16.10;68.10
11647;DHT22;5880;52.342;9.662;2023-08-31T05:11:20;16.10;68.10
11647;DHT22;5880;52.342;9.662;2023-08-31T05:13:47;16.10;68.20
11647;DHT22;5880;52.342;9.662;2023-08-31T05:16:13;16.20;68.30
11647;DHT22;5880;52.342;9.662;2023-08-31T05:18:38;16.20;68.20
11647;DHT22;5880;52.342;9.662;2023-08-31T05:21:05;16.20;68.10
11647;DHT22;5880;52.342;9.662;2023-08-31T05:23:31;16.50;68.30
11647;DHT22;5880;52.342;9.662;2023-08-31T05:25:58;16.20;68.10
11647;DHT22;5880;52.342;9.662;2023-08-31T05:28:24;16.20;68.20
11647;DHT22;5880;52.342;9.662;2023-08-31T05:30:50;16.30;68.40
11647;DHT22;5880;52.342;9.662;2023-08-31T05:33:20;16.30;68.50
11647;DHT22;5880;52.342;9.662;2023-08-31T05:35:47;16.40;68.60
11647;DHT22;5880;52.342;9.662;2023-08-31T05:38:13;16.40;68.60
11647;DHT22;5880;52.342;9.662;2023-08-31T05:40:39;16.40;68.50
11647;DHT22;5880;52.342;9.662;2023-08-31T05:43:05;16.40;68.40
11647;DHT22;5880;52.342;9.662;2023-08-31T05:45:34;16.50;69.10
11647;DHT22;5880;52.342;9.662;2023-08-31T05:48:00;16.50;68.30
11647;DHT22;5880;52.342;9.662;2023-08-31T05:50:27;16.50;68.20
11647;DHT22;5880;52.342;9.662;2023-08-31T05:52:53;16.60;68.30
11647;DHT22;5880;52.342;9.662;2023-08-31T05:55:20;16.60;68.30
11647;DHT22;5880;52.342;9.662;2023-08-31T05:57:45;16.60;68.30
11647;DHT22;5880;52.342;9.662;2023-08-31T06:00:11;16.70;68.40
11647;DHT22;5880;52.342;9.662;2023-08-31T06:02:37;16.70;68.30
11647;DHT22;5880;52.342;9.662;2023-08-31T06:05:03;16.80;68.30
11647;DHT22;5880;52.342;9.662;2023-08-31T06:07:29;16.80;68.30
11647;DHT22;5880;52.342;9.662;2023-08-31T06:09:56;16.90;68.50
11647;DHT22;5880;52.342;9.662;2023-08-31T06:12:22;16.90;68.40
11647;DHT22;5880;52.342;9.662;2023-08-31T06:14:48;17.00;68.40
11647;DHT22;5880;52.342;9.662;2023-08-31T06:17:14;17.00;68.60
11647;DHT22;5880;52.342;9.662;2023-08-31T06:19:40;17.10;68.80
11647;DHT22;5880;52.342;9.662;2023-08-31T06:22:07;17.20;69.70
11647;DHT22;5880;52.342;9.662;2023-08-31T06:24:33;17.30;69.00
11647;DHT22;5880;52.342;9.662;2023-08-31T06:26:59;17.40;69.20
11647;DHT22;5880;52.342;9.662;2023-08-31T06:29:25;17.50;69.10
11647;DHT22;5880;52.342;9.662;2023-08-31T06:31:51;17.70;68.50
11647;DHT22;5880;52.342;9.662;2023-08-31T06:34:17;17.80;67.90
11647;DHT22;5880;52.342;9.662;2023-08-31T06:36:43;17.80;67.30
11647;DHT22;5880;52.342;9.662;2023-08-31T06:39:08;17.80;66.90
11647;DHT22;5880;52.342;9.662;2023-08-31T06:41:34;17.80;66.80
11647;DHT22;5880;52.342;9.662;2023-08-31T06:44:01;17.80;66.50
11647;DHT22;5880;52.342;9.662;2023-08-31T06:46:27;17.80;66.30
11647;DHT22;5880;52.342;9.662;2023-08-31T06:48:54;17.70;66.20
11647;DHT22;5880;52.342;9.662;2023-08-31T06:51:19;17.70;66.30
11647;DHT22;5880;52.342;9.662;2023-08-31T06:53:46;17.60;66.30
11647;DHT22;5880;52.342;9.662;2023-08-31T06:56:12;17.60;66.50
11647;DHT22;5880;52.342;9.662;2023-08-31T06:58:38;17.60;66.70
11647;DHT22;5880;52.342;9.662;2023-08-31T07:01:06;17.70;67.00
11647;DHT22;5880;52.342;9.662;2023-08-31T07:03:32;17.60;67.30
11647;DHT22;5880;52.342;9.662;2023-08-31T07:05:58;17.70;68.20
11647;DHT22;5880;52.342;9.662;2023-08-31T07:08:24;17.80;69.30
11647;DHT22;5880;52.342;9.662;2023-08-31T07:10:50;18.10;70.30
11647;DHT22;5880;52.342;9.662;2023-08-31T07:13:16;18.30;70.10
11647;DHT22;5880;52.342;9.662;2023-08-31T07:15:42;18.50;69.70
11647;DHT22;5880;52.342;9.662;2023-08-31T07:18:07;18.80;69.50
11647;DHT22;5880;52.342;9.662;2023-08-31T07:20:33;19.00;68.50
11647;DHT22;5880;52.342;9.662;2023-08-31T07:22:59;19.20;67.50
11647;DHT22;5880;52.342;9.662;2023-08-31T07:25:25;19.30;66.10
11647;DHT22;5880;52.342;9.662;2023-08-31T07:27:50;19.40;66.00
11647;DHT22;5880;52.342;9.662;2023-08-31T07:30:16;19.60;65.80
11647;DHT22;5880;52.342;9.662;2023-08-31T07:32:42;19.40;65.50
11647;DHT22;5880;52.342;9.662;2023-08-31T07:35:08;19.50;67.00
11647;DHT22;5880;52.342;9.662;2023-08-31T07:37:33;19.70;68.20
11647;DHT22;5880;52.342;9.662;2023-08-31T07:40:00;19.60;68.30
11647;DHT22;5880;52.342;9.662;2023-08-31T07:42:25;20.20;66.80
11647;DHT22;5880;52.342;9.662;2023-08-31T07:44:51;20.20;65.80
11647;DHT22;5880;52.342;9.662;2023-08-31T07:47:16;20.30;65.10
11647;DHT22;5880;52.342;9.662;2023-08-31T07:49:42;20.50;64.30
11647;DHT22;5880;52.342;9.662;2023-08-31T07:52:08;20.40;63.40
11647;DHT22;5880;52.342;9.662;2023-08-31T07:54:33;20.90;63.00
11647;DHT22;5880;52.342;9.662;2023-08-31T07:56:59;20.50;62.40
11647;DHT22;5880;52.342;9.662;2023-08-31T07:59:25;20.30;62.30
11647;DHT22;5880;52.342;9.662;2023-08-31T08:01:51;20.50;62.50
11647;DHT22;5880;52.342;9.662;2023-08-31T08:04:17;20.10;62.10
11647;DHT22;5880;52.342;9.662;2023-08-31T08:06:45;20.00;62.40
11647;DHT22;5880;52.342;9.662;2023-08-31T08:09:10;19.90;63.00
11647;DHT22;5880;52.342;9.662;2023-08-31T08:11:37;19.80;62.30
11647;DHT22;5880;52.342;9.662;2023-08-31T08:14:03;19.70;62.80
11647;DHT22;5880;52.342;9.662;2023-08-31T08:16:29;19.70;62.90
11647;DHT22;5880;52.342;9.662;2023-08-31T08:18:55;19.70;63.10
11647;DHT22;5880;52.342;9.662;2023-08-31T08:21:21;19.70;63.50
11647;DHT22;5880;52.342;9.662;2023-08-31T08:23:46;19.70;63.70
11647;DHT22;5880;52.342;9.662;2023-08-31T08:26:12;19.70;63.90
11647;DHT22;5880;52.342;9.662;2023-08-31T08:28:38;19.70;63.70
11647;DHT22;5880;52.342;9.662;2023-08-31T08:31:03;19.70;63.30
11647;DHT22;5880;52.342;9.662;2023-08-31T08:33:30;19.70;63.40
11647;DHT22;5880;52.342;9.662;2023-08-31T08:35:57;19.70;63.70
11647;DHT22;5880;52.342;9.662;2023-08-31T08:38:22;19.60;63.80
11647;DHT22;5880;52.342;9.662;2023-08-31T08:40:48;19.70;63.60
11647;DHT22;5880;52.342;9.662;2023-08-31T08:43:14;19.70;63.70
11647;DHT22;5880;52.342;9.662;2023-08-31T08:45:40;19.80;63.30
11647;DHT22;5880;52.342;9.662;2023-08-31T08:48:08;19.70;62.80
11647;DHT22;5880;52.342;9.662;2023-08-31T08:50:36;19.70;63.20
11647;DHT22;5880;52.342;9.662;2023-08-31T08:53:03;19.70;63.60
11647;DHT22;5880;52.342;9.662;2023-08-31T08:55:30;19.70;64.10
11647;DHT22;5880;52.342;9.662;2023-08-31T08:57:57;19.90;64.10
11647;DHT22;5880;52.342;9.662;2023-08-31T09:00:26;19.80;63.60
11647;DHT22;5880;52.342;9.662;2023-08-31T09:02:53;19.90;63.50
11647;DHT22;5880;52.342;9.662;2023-08-31T09:05:19;19.90;63.30
11647;DHT22;5880;52.342;9.662;2023-08-31T09:08:05;19.90;63.40
11647;DHT22;5880;52.342;9.662;2023-08-31T09:10:44;19.90;61.00
11647;DHT22;5880;52.342;9.662;2023-08-31T09:13:19;19.90;63.20
11647;DHT22;5880;52.342;9.662;2023-08-31T09:15:46;19.90;61.80
11647;DHT22;5880;52.342;9.662;2023-08-31T09:18:27;20.00;62.70
11647;DHT22;5880;52.342;9.662;2023-08-31T09:20:54;20.00;62.10
11647;DHT22;5880;52.342;9.662;2023-08-31T09:23:22;20.10;63.10
11647;DHT22;5880;52.342;9.662;2023-08-31T09:25:53;20.20;63.00
11647;DHT22;5880;52.342;9.662;2023-08-31T09:28:24;20.20;63.20
11647;DHT22;5880;52.342;9.662;2023-08-31T09:31:06;20.30;63.20
11647;DHT22;5880;52.342;9.662;2023-08-31T09:33:34;20.40;62.20
11647;DHT22;5880;52.342;9.662;2023-08-31T09:36:01;20.40;63.10
11647;DHT22;5880;52.342;9.662;2023-08-31T09:38:29;20.50;63.30
11647;DHT22;5880;52.342;9.662;2023-08-31T09:41:21;20.60;63.10
11647;DHT22;5880;52.342;9.662;2023-08-31T09:43:46;20.50;62.20
11647;DHT22;5880;52.342;9.662;2023-08-31T09:46:12;20.50;62.80
11647;DHT22;5880;52.342;9.662;2023-08-31T09:48:40;20.60;63.10
11647;DHT22;5880;52.342;9.662;2023-08-31T09:51:07;20.60;63.40
11647;DHT22;5880;52.342;9.662;2023-08-31T09:53:37;20.70;63.70
11647;DHT22;5880;52.342;9.662;2023-08-31T09:56:05;20.80;62.60
11647;DHT22;5880;52.342;9.662;2023-08-31T09:58:32;20.80;62.90
11647;DHT22;5880;52.342;9.662;2023-08-31T10:00:59;20.70;62.70
11647;DHT22;5880;52.342;9.662;2023-08-31T10:03:26;20.70;62.60
11647;DHT22;5880;52.342;9.662;2023-08-31T10:05:54;20.70;62.40
11647;DHT22;5880;52.342;9.662;2023-08-31T10:08:21;20.70;61.90
11647;DHT22;5880;52.342;9.662;2023-08-31T10:10:49;20.70;62.50
11647;DHT22;5880;52.342;9.662;2023-08-31T10:13:16;20.70;62.20
11647;DHT22;5880;52.342;9.662;2023-08-31T10:15:44;20.60;62.20
11647;DHT22;5880;52.342;9.662;2023-08-31T10:18:10;20.70;63.30
11647;DHT22;5880;52.342;9.662;2023-08-31T10:20:36;20.70;64.00
11647;DHT22;5880;52.342;9.662;2023-08-31T10:23:06;20.80;64.80
11647;DHT22;5880;52.342;9.662;2023-08-31T10:28:22;21.20;63.90
11647;DHT22;5880;52.342;9.662;2023-08-31T10:31:07;21.40;64.50
11647;DHT22;5880;52.342;9.662;2023-08-31T10:33:41;21.70;62.90
11647;DHT22;5880;52.342;9.662;2023-08-31T10:36:14;21.80;63.40
11647;DHT22;5880;52.342;9.662;2023-08-31T10:39:06;22.00;62.90
11647;DHT22;5880;52.342;9.662;2023-08-31T10:41:36;22.10;58.90
11647;DHT22;5880;52.342;9.662;2023-08-31T10:44:18;22.20;62.00
11647;DHT22;5880;52.342;9.662;2023-08-31T10:46:45;22.20;59.20
11647;DHT22;5880;52.342;9.662;2023-08-31T10:52:00;22.20;60.80
11647;DHT22;5880;52.342;9.662;2023-08-31T10:54:46;22.20;58.60
11647;DHT22;5880;52.342;9.662;2023-08-31T10:57:12;22.00;59.10
11647;DHT22;5880;52.342;9.662;2023-08-31T10:59:53;21.90;59.10
11647;DHT22;5880;52.342;9.662;2023-08-31T11:05:06;21.70;59.80
11647;DHT22;5880;52.342;9.662;2023-08-31T11:07:43;21.50;60.30
11647;DHT22;5880;52.342;9.662;2023-08-31T11:10:18;21.50;60.60
11647;DHT22;5880;52.342;9.662;2023-08-31T11:12:51;21.30;59.80
11647;DHT22;5880;52.342;9.662;2023-08-31T11:15:22;21.30;60.70
11647;DHT22;5880;52.342;9.662;2023-08-31T11:17:50;21.30;60.90
11647;DHT22;5880;52.342;9.662;2023-08-31T11:20:21;21.30;60.70
11647;DHT22;5880;52.342;9.662;2023-08-31T11:22:49;21.30;60.80
11647;DHT22;5880;52.342;9.662;2023-08-31T11:25:16;21.40;61.10
11647;DHT22;5880;52.342;9.662;2023-08-31T11:27:59;21.30;61.10
11647;DHT22;5880;52.342;9.662;2023-08-31T11:30:29;21.30;60.50
11647;DHT22;5880;52.342;9.662;2023-08-31T11:33:16;21.30;61.30
11647;DHT22;5880;52.342;9.662;2023-08-31T11:35:43;21.40;60.10
11647;DHT22;5880;52.342;9.662;2023-08-31T11:38:10;21.40;60.40
11647;DHT22;5880;52.342;9.662;2023-08-31T11:40:36;21.60;60.30
11647;DHT22;5880;52.342;9.662;2023-08-31T11:43:04;21.50;60.50
11647;DHT22;5880;52.342;9.662;2023-08-31T11:45:32;21.50;60.40
11647;DHT22;5880;52.342;9.662;2023-08-31T11:47:58;21.50;60.80
11647;DHT22;5880;52.342;9.662;2023-08-31T11:50:25;21.60;60.80
11647;DHT22;5880;52.342;9.662;2023-08-31T11:52:51;21.60;61.00
11647;DHT22;5880;52.342;9.662;2023-08-31T11:55:18;21.60;60.60
11647;DHT22;5880;52.342;9.662;2023-08-31T11:57:52;21.60;59.90
11647;DHT22;5880;52.342;9.662;2023-08-31T12:00:22;21.70;59.80
11647;DHT22;5880;52.342;9.662;2023-08-31T12:02:59;21.70;59.70
11647;DHT22;5880;52.342;9.662;2023-08-31T12:05:29;21.70;59.80
11647;DHT22;5880;52.342;9.662;2023-08-31T12:07:57;21.80;60.10
11647;DHT22;5880;52.342;9.662;2023-08-31T12:10:25;21.80;60.40
11647;DHT22;5880;52.342;9.662;2023-08-31T12:12:52;21.90;59.90
11647;DHT22;5880;52.342;9.662;2023-08-31T12:15:18;21.90;59.80
11647;DHT22;5880;52.342;9.662;2023-08-31T12:17:47;21.80;59.50
11647;DHT22;5880;52.342;9.662;2023-08-31T12:20:24;21.90;59.80
11647;DHT22;5880;52.342;9.662;2023-08-31T12:22:52;21.90;59.30
11647;DHT22;5880;52.342;9.662;2023-08-31T12:25:24;21.90;59.80
11647;DHT22;5880;52.342;9.662;2023-08-31T12:27:49;22.10;59.00
11647;DHT22;5880;52.342;9.662;2023-08-31T12:30:15;22.00;59.60
11647;DHT22;5880;52.342;9.662;2023-08-31T12:32:41;22.00;59.80
11647;DHT22;5880;52.342;9.662;2023-08-31T12:35:07;22.20;59.50
11647;DHT22;5880;52.342;9.662;2023-08-31T12:37:32;22.20;59.70
11647;DHT22;5880;52.342;9.662;2023-08-31T12:39:58;22.20;60.00
11647;DHT22;5880;52.342;9.662;2023-08-31T12:42:24;22.30;60.30
11647;DHT22;5880;52.342;9.662;2023-08-31T12:44:49;22.30;59.30
11647;DHT22;5880;52.342;9.662;2023-08-31T12:47:15;22.40;59.00
11647;DHT22;5880;52.342;9.662;2023-08-31T12:49:41;22.40;58.90
11647;DHT22;5880;52.342;9.662;2023-08-31T12:52:06;22.40;58.90
11647;DHT22;5880;52.342;9.662;2023-08-31T12:54:32;22.40;58.30
11647;DHT22;5880;52.342;9.662;2023-08-31T12:56:58;22.80;58.00
11647;DHT22;5880;52.342;9.662;2023-08-31T12:59:23;22.50;58.50
11647;DHT22;5880;52.342;9.662;2023-08-31T13:01:49;22.50;58.00
11647;DHT22;5880;52.342;9.662;2023-08-31T13:04:15;22.60;58.00
11647;DHT22;5880;52.342;9.662;2023-08-31T13:06:41;22.60;57.40
11647;DHT22;5880;52.342;9.662;2023-08-31T13:09:06;22.50;57.40
11647;DHT22;5880;52.342;9.662;2023-08-31T13:11:34;22.40;56.70
11647;DHT22;5880;52.342;9.662;2023-08-31T13:13:59;22.40;56.80
11647;DHT22;5880;52.342;9.662;2023-08-31T13:16:25;22.30;56.90
11647;DHT22;5880;52.342;9.662;2023-08-31T13:18:51;22.30;57.00
11647;DHT22;5880;52.342;9.662;2023-08-31T13:21:16;22.20;56.90
11647;DHT22;5880;52.342;9.662;2023-08-31T13:23:42;22.30;56.70
11647;DHT22;5880;52.342;9.662;2023-08-31T13:26:09;22.10;56.60
11647;DHT22;5880;52.342;9.662;2023-08-31T13:28:35;22.20;54.80
11647;DHT22;5880;52.342;9.662;2023-08-31T13:31:01;22.00;55.10
11647;DHT22;5880;52.342;9.662;2023-08-31T13:33:27;22.00;55.10
11647;DHT22;5880;52.342;9.662;2023-08-31T13:35:59;21.80;55.40
11647;DHT22;5880;52.342;9.662;2023-08-31T13:38:25;21.70;55.30
11647;DHT22;5880;52.342;9.662;2023-08-31T13:40:55;21.60;55.90
11647;DHT22;5880;52.342;9.662;2023-08-31T13:43:24;21.50;56.30
11647;DHT22;5880;52.342;9.662;2023-08-31T13:45:51;21.40;56.30
11647;DHT22;5880;52.342;9.662;2023-08-31T13:48:17;21.30;56.60
11647;DHT22;5880;52.342;9.662;2023-08-31T13:50:45;21.10;56.80
11647;DHT22;5880;52.342;9.662;2023-08-31T13:53:12;21.00;57.00
11647;DHT22;5880;52.342;9.662;2023-08-31T13:55:37;20.80;57.50
11647;DHT22;5880;52.342;9.662;2023-08-31T13:58:06;20.60;57.40
11647;DHT22;5880;52.342;9.662;2023-08-31T14:00:34;20.50;58.00
11647;DHT22;5880;52.342;9.662;2023-08-31T14:03:00;20.30;58.40
11647;DHT22;5880;52.342;9.662;2023-08-31T14:05:29;20.20;58.80
11647;DHT22;5880;52.342;9.662;2023-08-31T14:07:55;20.10;59.40
11647;DHT22;5880;52.342;9.662;2023-08-31T14:10:21;20.00;59.80
11647;DHT22;5880;52.342;9.662;2023-08-31T14:12:47;19.90;60.20
11647;DHT22;5880;52.342;9.662;2023-08-31T14:15:13;19.90;60.60
11647;DHT22;5880;52.342;9.662;2023-08-31T14:17:38;19.90;60.50
11647;DHT22;5880;52.342;9.662;2023-08-31T14:20:05;19.80;60.50
11647;DHT22;5880;52.342;9.662;2023-08-31T14:22:34;19.80;60.70
11647;DHT22;5880;52.342;9.662;2023-08-31T14:25:02;19.70;60.80
11647;DHT22;5880;52.342;9.662;2023-08-31T14:27:29;19.70;61.50
11647;DHT22;5880;52.342;9.662;2023-08-31T14:29:56;19.70;61.50
11647;DHT22;5880;52.342;9.662;2023-08-31T14:32:23;19.70;61.40
11647;DHT22;5880;52.342;9.662;2023-08-31T14:34:48;19.70;61.30
11647;DHT22;5880;52.342;9.662;2023-08-31T14:37:14;19.70;61.80
11647;DHT22;5880;52.342;9.662;2023-08-31T14:39:40;19.70;61.70
11647;DHT22;5880;52.342;9.662;2023-08-31T14:42:06;19.70;61.90
11647;DHT22;5880;52.342;9.662;2023-08-31T14:44:32;19.70;62.40
11647;DHT22;5880;52.342;9.662;2023-08-31T14:46:58;19.80;62.90
11647;DHT22;5880;52.342;9.662;2023-08-31T14:49:24;19.90;62.90
11647;DHT22;5880;52.342;9.662;2023-08-31T14:51:52;20.00;62.40
11647;DHT22;5880;52.342;9.662;2023-08-31T14:54:18;20.10;62.20
11647;DHT22;5880;52.342;9.662;2023-08-31T14:56:44;20.20;62.20
11647;DHT22;5880;52.342;9.662;2023-08-31T14:59:09;20.20;61.90
11647;DHT22;5880;52.342;9.662;2023-08-31T15:01:36;20.30;61.90
11647;DHT22;5880;52.342;9.662;2023-08-31T15:04:04;20.30;61.60
11647;DHT22;5880;52.342;9.662;2023-08-31T15:06:30;20.30;61.00
11647;DHT22;5880;52.342;9.662;2023-08-31T15:08:58;20.30;61.10
11647;DHT22;5880;52.342;9.662;2023-08-31T15:11:27;20.30;61.20
11647;DHT22;5880;52.342;9.662;2023-08-31T15:13:53;20.30;61.30
11647;DHT22;5880;52.342;9.662;2023-08-31T15:16:19;20.40;60.60
11647;DHT22;5880;52.342;9.662;2023-08-31T15:18:44;20.40;60.40
11647;DHT22;5880;52.342;9.662;2023-08-31T15:21:12;20.30;60.70
11647;DHT22;5880;52.342;9.662;2023-08-31T15:23:38;20.40;60.50
11647;DHT22;5880;52.342;9.662;2023-08-31T15:26:04;20.30;60.70
11647;DHT22;5880;52.342;9.662;2023-08-31T15:28:30;20.30;60.30
11647;DHT22;5880;52.342;9.662;2023-08-31T15:30:55;20.30;60.30
11647;DHT22;5880;52.342;9.662;2023-08-31T15:33:21;20.20;60.40
11647;DHT22;5880;52.342;9.662;2023-08-31T15:35:47;20.20;60.40
11647;DHT22;5880;52.342;9.662;2023-08-31T15:38:12;20.20;60.40
11647;DHT22;5880;52.342;9.662;2023-08-31T15:40:38;20.20;60.20
11647;DHT22;5880;52.342;9.662;2023-08-31T15:43:04;20.20;60.40
11647;DHT22;5880;52.342;9.662;2023-08-31T15:45:29;20.20;60.40
11647;DHT22;5880;52.342;9.662;2023-08-31T15:47:55;20.20;60.50
11647;DHT22;5880;52.342;9.662;2023-08-31T15:50:21;20.20;60.90
11647;DHT22;5880;52.342;9.662;2023-08-31T15:52:46;20.20;60.90
11647;DHT22;5880;52.342;9.662;2023-08-31T15:55:12;20.20;60.80
11647;DHT22;5880;52.342;9.662;2023-08-31T15:57:38;20.20;60.80
11647;DHT22;5880;52.342;9.662;2023-08-31T16:00:04;20.20;60.60